sensor_id;sensor_type;location;lat;lon;timestamp;pressure;altitude;pressure_sealevel;temperature;humidity
70925;BME280;58577;52.410;13.242;2022-12-18T00:00:43;102803.47;;;-7.49;100.00
70925;BME280;58577;52.410;13.242;2022-12-18T00:03:29;102807.84;;;-7.47;100.00
70925;BME280;58577;52.410;13.242;2022-12-18T00:06:15;102806.91;;;-7.55;100.00
70925;BME280;58577;52.410;13.242;2022-12-18T00:09:03;102812.25;;;-7.43;100.00
70925;BME280;58577;52.410;13.242;2022-12-18T00:11:49;102811.19;;;-7.57;100.00
70925;BME280;58577;52.410;13.242;2022-12-18T00:14:34;102807.66;;;-7.62;100.00
70925;BME280;58577;52.410;13.242;2022-12-18T00:17:21;102813.88;;;-7.53;100.00
70925;BME280;58577;52.410;13.242;2022-12-18T00:20:07;102806.81;;;-7.60;100.00
70925;BME280;58577;52.410;13.242;2022-12-18T00:22:53;102807.88;;;-7.44;100.00
70925;BME280;58577;52.410;13.242;2022-12-18T00:25:39;102806.84;;;-7.58;100.00
70925;BME280;58577;52.410;13.242;2022-12-18T00:28:25;102809.38;;;-7.64;100.00
70925;BME280;58577;52.410;13.242;2022-12-18T00:31:22;102809.13;;;-7.83;100.00
70925;BME280;58577;52.410;13.242;2022-12-18T00:34:12;102806.69;;;-7.71;100.00
70925;BME280;58577;52.410;13.242;2022-12-18T00:36:59;102802.19;;;-7.81;100.00
70925;BME280;58577;52.410;13.242;2022-12-18T00:39:45;102800.53;;;-7.76;100.00
70925;BME280;58577;52.410;13.242;2022-12-18T00:42:31;102805.78;;;-7.73;100.00
70925;BME280;58577;52.410;13.242;2022-12-18T00:45:35;102801.47;;;-7.72;100.00
70925;BME280;58577;52.410;13.242;2022-12-18T00:48:21;102802.19;;;-7.84;100.00
70925;BME280;58577;52.410;13.242;2022-12-18T00:51:07;102805.59;;;-7.88;100.00
70925;BME280;58577;52.410;13.242;2022-12-18T00:53:54;102811.66;;;-7.89;100.00
70925;BME280;58577;52.410;13.242;2022-12-18T00:56:40;102800.28;;;-7.94;100.00
70925;BME280;58577;52.410;13.242;2022-12-18T00:59:26;102798.94;;;-7.66;100.00
70925;BME280;58577;52.410;13.242;2022-12-18T01:02:12;102796.28;;;-7.67;100.00
70925;BME280;58577;52.410;13.242;2022-12-18T01:04:58;102800.63;;;-7.68;100.00
70925;BME280;58577;52.410;13.242;2022-12-18T01:07:44;102801.06;;;-8.00;100.00
70925;BME280;58577;52.410;13.242;2022-12-18T01:10:30;102806.31;;;-7.98;100.00
70925;BME280;58577;52.410;13.242;2022-12-18T01:13:16;102803.88;;;-7.86;100.00
70925;BME280;58577;52.410;13.242;2022-12-18T01:16:02;102803.97;;;-7.80;100.00
70925;BME280;58577;52.410;13.242;2022-12-18T01:18:52;102806.31;;;-7.97;100.00
70925;BME280;58577;52.410;13.242;2022-12-18T01:21:39;102808.97;;;-7.92;100.00
70925;BME280;58577;52.410;13.242;2022-12-18T01:24:24;102814.31;;;-7.84;100.00
70925;BME280;58577;52.410;13.242;2022-12-18T01:27:10;102818.69;;;-7.82;100.00
70925;BME280;58577;52.410;13.242;2022-12-18T01:29:56;102823.91;;;-7.80;100.00
70925;BME280;58577;52.410;13.242;2022-12-18T01:32:42;102831.59;;;-7.91;100.00
70925;BME280;58577;52.410;13.242;2022-12-18T01:35:28;102835.78;;;-8.02;100.00
70925;BME280;58577;52.410;13.242;2022-12-18T01:38:14;102839.34;;;-7.94;100.00
70925;BME280;58577;52.410;13.242;2022-12-18T01:41:00;102843.66;;;-7.96;100.00
70925;BME280;58577;52.410;13.242;2022-12-18T01:43:57;102834.22;;;-7.89;100.00
70925;BME280;58577;52.410;13.242;2022-12-18T01:46:43;102826.47;;;-7.85;100.00
70925;BME280;58577;52.410;13.242;2022-12-18T01:49:29;102839.47;;;-7.86;100.00
70925;BME280;58577;52.410;13.242;2022-12-18T01:52:15;102836.94;;;-7.80;100.00
70925;BME280;58577;52.410;13.242;2022-12-18T01:55:05;102846.41;;;-7.88;100.00
70925;BME280;58577;52.410;13.242;2022-12-18T01:57:56;102838.53;;;-7.93;100.00
70925;BME280;58577;52.410;13.242;2022-12-18T02:00:43;102843.09;;;-7.75;100.00
70925;BME280;58577;52.410;13.242;2022-12-18T02:03:28;102833.34;;;-7.92;100.00
70925;BME280;58577;52.410;13.242;2022-12-18T02:06:23;102840.41;;;-7.83;100.00
70925;BME280;58577;52.410;13.242;2022-12-18T02:09:23;102847.38;;;-7.82;100.00
70925;BME280;58577;52.410;13.242;2022-12-18T02:12:19;102846.53;;;-7.79;100.00
70925;BME280;58577;52.410;13.242;2022-12-18T02:15:13;102847.44;;;-7.76;100.00
70925;BME280;58577;52.410;13.242;2022-12-18T02:18:11;102847.38;;;-7.82;100.00
70925;BME280;58577;52.410;13.242;2022-12-18T02:21:20;102850.88;;;-7.80;100.00
70925;BME280;58577;52.410;13.242;2022-12-18T02:27:15;102856.81;;;-7.88;100.00
70925;BME280;58577;52.410;13.242;2022-12-18T02:30:02;102856.16;;;-7.74;100.00
70925;BME280;58577;52.410;13.242;2022-12-18T02:32:51;102856.56;;;-8.07;100.00
70925;BME280;58577;52.410;13.242;2022-12-18T02:35:40;102854.31;;;-7.81;100.00
70925;BME280;58577;52.410;13.242;2022-12-18T02:38:28;102860.50;;;-7.74;100.00
70925;BME280;58577;52.410;13.242;2022-12-18T02:41:18;102857.75;;;-7.85;100.00
70925;BME280;58577;52.410;13.242;2022-12-18T02:44:13;102860.09;;;-8.03;100.00
70925;BME280;58577;52.410;13.242;2022-12-18T02:46:59;102848.97;;;-7.90;100.00
70925;BME280;58577;52.410;13.242;2022-12-18T02:52:55;102858.59;;;-7.84;100.00
70925;BME280;58577;52.410;13.242;2022-12-18T02:56:11;102863.88;;;-7.81;100.00
70925;BME280;58577;52.410;13.242;2022-12-18T03:04:41;102862.75;;;-7.99;100.00
70925;BME280;58577;52.410;13.242;2022-12-18T03:07:53;102870.81;;;-7.83;100.00
70925;BME280;58577;52.410;13.242;2022-12-18T03:10:47;102871.56;;;-7.91;100.00
70925;BME280;58577;52.410;13.242;2022-12-18T03:13:46;102864.75;;;-7.81;100.00
70925;BME280;58577;52.410;13.242;2022-12-18T03:16:35;102863.81;;;-7.84;100.00
70925;BME280;58577;52.410;13.242;2022-12-18T03:19:27;102866.53;;;-7.77;100.00
70925;BME280;58577;52.410;13.242;2022-12-18T03:22:18;102872.53;;;-7.82;100.00
70925;BME280;58577;52.410;13.242;2022-12-18T03:25:09;102877.53;;;-7.96;100.00
70925;BME280;58577;52.410;13.242;2022-12-18T03:27:58;102873.50;;;-7.76;100.00
70925;BME280;58577;52.410;13.242;2022-12-18T03:30:47;102874.44;;;-7.72;100.00
70925;BME280;58577;52.410;13.242;2022-12-18T03:33:42;102868.31;;;-7.76;100.00
70925;BME280;58577;52.410;13.242;2022-12-18T03:36:30;102878.66;;;-7.82;100.00
70925;BME280;58577;52.410;13.242;2022-12-18T03:39:16;102863.75;;;-7.91;100.00
70925;BME280;58577;52.410;13.242;2022-12-18T03:42:15;102861.88;;;-7.98;100.00
70925;BME280;58577;52.410;13.242;2022-12-18T03:45:23;102848.88;;;-7.96;100.00
70925;BME280;58577;52.410;13.242;2022-12-18T03:48:33;102855.09;;;-7.89;100.00
70925;BME280;58577;52.410;13.242;2022-12-18T03:51:39;102863.59;;;-8.00;100.00
70925;BME280;58577;52.410;13.242;2022-12-18T03:54:29;102862.03;;;-7.88;100.00
70925;BME280;58577;52.410;13.242;2022-12-18T03:57:28;102865.50;;;-7.89;100.00
70925;BME280;58577;52.410;13.242;2022-12-18T04:00:18;102862.78;;;-7.97;100.00
70925;BME280;58577;52.410;13.242;2022-12-18T04:03:22;102873.22;;;-7.97;100.00
70925;BME280;58577;52.410;13.242;2022-12-18T04:06:09;102875.63;;;-8.08;100.00
70925;BME280;58577;52.410;13.242;2022-12-18T04:08:59;102870.47;;;-8.05;100.00
70925;BME280;58577;52.410;13.242;2022-12-18T04:11:46;102880.97;;;-8.00;100.00
70925;BME280;58577;52.410;13.242;2022-12-18T04:14:34;102883.72;;;-7.91;100.00
70925;BME280;58577;52.410;13.242;2022-12-18T04:17:22;102876.69;;;-7.97;100.00
70925;BME280;58577;52.410;13.242;2022-12-18T04:20:09;102882.84;;;-7.90;100.00
70925;BME280;58577;52.410;13.242;2022-12-18T04:22:58;102885.34;;;-7.96;100.00
70925;BME280;58577;52.410;13.242;2022-12-18T04:25:46;102886.03;;;-8.11;100.00
70925;BME280;58577;52.410;13.242;2022-12-18T04:28:37;102891.34;;;-8.02;100.00
70925;BME280;58577;52.410;13.242;2022-12-18T04:31:23;102891.44;;;-7.97;100.00
70925;BME280;58577;52.410;13.242;2022-12-18T04:34:09;102894.09;;;-7.96;100.00
70925;BME280;58577;52.410;13.242;2022-12-18T04:37:00;102896.84;;;-7.85;100.00
70925;BME280;58577;52.410;13.242;2022-12-18T04:39:46;102903.25;;;-8.18;100.00
70925;BME280;58577;52.410;13.242;2022-12-18T04:42:40;102892.28;;;-7.98;100.00
70925;BME280;58577;52.410;13.242;2022-12-18T04:45:26;102889.53;;;-8.09;100.00
70925;BME280;58577;52.410;13.242;2022-12-18T04:48:11;102888.88;;;-7.94;100.00
70925;BME280;58577;52.410;13.242;2022-12-18T04:50:57;102895.69;;;-8.02;100.00
70925;BME280;58577;52.410;13.242;2022-12-18T04:53:43;102905.94;;;-8.15;100.00
70925;BME280;58577;52.410;13.242;2022-12-18T04:56:31;102907.53;;;-8.21;100.00
70925;BME280;58577;52.410;13.242;2022-12-18T04:59:17;102906.66;;;-8.22;100.00
70925;BME280;58577;52.410;13.242;2022-12-18T05:02:03;102908.38;;;-8.24;100.00
70925;BME280;58577;52.410;13.242;2022-12-18T05:04:48;102904.13;;;-8.19;100.00
70925;BME280;58577;52.410;13.242;2022-12-18T05:07:34;102915.44;;;-8.15;100.00
70925;BME280;58577;52.410;13.242;2022-12-18T05:10:20;102910.63;;;-7.94;100.00
70925;BME280;58577;52.410;13.242;2022-12-18T05:13:06;102929.50;;;-8.05;100.00
70925;BME280;58577;52.410;13.242;2022-12-18T05:15:52;102912.63;;;-8.29;100.00
70925;BME280;58577;52.410;13.242;2022-12-18T05:18:39;102921.22;;;-8.33;100.00
70925;BME280;58577;52.410;13.242;2022-12-18T05:21:25;102917.13;;;-8.20;100.00
70925;BME280;58577;52.410;13.242;2022-12-18T05:24:11;102912.88;;;-8.14;100.00
70925;BME280;58577;52.410;13.242;2022-12-18T05:26:57;102928.38;;;-8.21;100.00
70925;BME280;58577;52.410;13.242;2022-12-18T05:29:43;102933.50;;;-8.26;100.00
70925;BME280;58577;52.410;13.242;2022-12-18T05:32:28;102938.81;;;-8.20;100.00
70925;BME280;58577;52.410;13.242;2022-12-18T05:35:14;102932.75;;;-8.20;100.00
70925;BME280;58577;52.410;13.242;2022-12-18T05:38:00;102941.22;;;-8.31;100.00
70925;BME280;58577;52.410;13.242;2022-12-18T05:40:47;102952.03;;;-8.09;100.00
70925;BME280;58577;52.410;13.242;2022-12-18T05:43:35;102947.09;;;-7.92;100.00
70925;BME280;58577;52.410;13.242;2022-12-18T05:46:21;102940.16;;;-7.90;100.00
70925;BME280;58577;52.410;13.242;2022-12-18T05:49:07;102950.16;;;-8.18;100.00
70925;BME280;58577;52.410;13.242;2022-12-18T05:51:53;102944.34;;;-8.00;100.00
70925;BME280;58577;52.410;13.242;2022-12-18T05:54:39;102943.31;;;-8.10;100.00
70925;BME280;58577;52.410;13.242;2022-12-18T05:57:25;102945.13;;;-8.05;100.00
70925;BME280;58577;52.410;13.242;2022-12-18T06:00:11;102956.34;;;-8.10;100.00
70925;BME280;58577;52.410;13.242;2022-12-18T06:03:00;102955.38;;;-8.16;100.00
70925;BME280;58577;52.410;13.242;2022-12-18T06:05:46;102960.53;;;-8.21;100.00
70925;BME280;58577;52.410;13.242;2022-12-18T06:08:32;102966.66;;;-8.17;100.00
70925;BME280;58577;52.410;13.242;2022-12-18T06:11:20;102972.75;;;-8.15;100.00
70925;BME280;58577;52.410;13.242;2022-12-18T06:14:06;102972.09;;;-8.05;100.00
70925;BME280;58577;52.410;13.242;2022-12-18T06:16:52;102976.22;;;-8.16;100.00
70925;BME280;58577;52.410;13.242;2022-12-18T06:19:38;102982.09;;;-8.28;100.00
70925;BME280;58577;52.410;13.242;2022-12-18T06:22:24;102971.97;;;-8.10;100.00
70925;BME280;58577;52.410;13.242;2022-12-18T06:25:10;102976.56;;;-7.96;100.00
70925;BME280;58577;52.410;13.242;2022-12-18T06:27:56;102980.06;;;-7.94;100.00
70925;BME280;58577;52.410;13.242;2022-12-18T06:30:46;102980.78;;;-8.04;100.00
70925;BME280;58577;52.410;13.242;2022-12-18T06:33:32;102966.75;;;-8.13;100.00
70925;BME280;58577;52.410;13.242;2022-12-18T06:36:19;102970.97;;;-8.18;100.00
70925;BME280;58577;52.410;13.242;2022-12-18T06:39:05;102976.25;;;-8.13;100.00
70925;BME280;58577;52.410;13.242;2022-12-18T06:41:51;102992.63;;;-8.22;100.00
70925;BME280;58577;52.410;13.242;2022-12-18T06:44:37;102992.94;;;-8.05;100.00
70925;BME280;58577;52.410;13.242;2022-12-18T06:47:23;102998.72;;;-8.20;100.00
70925;BME280;58577;52.410;13.242;2022-12-18T06:50:09;102995.41;;;-8.13;100.00
70925;BME280;58577;52.410;13.242;2022-12-18T06:52:58;103017.13;;;-8.11;100.00
70925;BME280;58577;52.410;13.242;2022-12-18T06:55:44;103013.84;;;-8.00;100.00
70925;BME280;58577;52.410;13.242;2022-12-18T06:58:30;103010.66;;;-7.82;100.00
70925;BME280;58577;52.410;13.242;2022-12-18T07:01:16;103016.78;;;-7.82;100.00
70925;BME280;58577;52.410;13.242;2022-12-18T07:04:02;103019.50;;;-7.73;100.00
70925;BME280;58577;52.410;13.242;2022-12-18T07:06:48;103015.81;;;-7.87;100.00
70925;BME280;58577;52.410;13.242;2022-12-18T07:09:33;103008.91;;;-7.85;100.00
70925;BME280;58577;52.410;13.242;2022-12-18T07:12:19;103017.53;;;-7.87;100.00
70925;BME280;58577;52.410;13.242;2022-12-18T07:15:06;103021.28;;;-7.72;100.00
70925;BME280;58577;52.410;13.242;2022-12-18T07:17:52;103021.63;;;-7.50;100.00
70925;BME280;58577;52.410;13.242;2022-12-18T07:20:39;103013.41;;;-7.76;100.00
70925;BME280;58577;52.410;13.242;2022-12-18T07:23:24;103013.25;;;-7.85;100.00
70925;BME280;58577;52.410;13.242;2022-12-18T07:26:12;103008.44;;;-7.61;100.00
70925;BME280;58577;52.410;13.242;2022-12-18T07:28:58;103008.97;;;-7.80;100.00
70925;BME280;58577;52.410;13.242;2022-12-18T07:31:44;103017.72;;;-7.77;100.00
70925;BME280;58577;52.410;13.242;2022-12-18T07:34:30;103017.69;;;-7.80;100.00
70925;BME280;58577;52.410;13.242;2022-12-18T07:37:16;103010.16;;;-7.63;100.00
70925;BME280;58577;52.410;13.242;2022-12-18T07:40:02;103009.06;;;-7.76;100.00
70925;BME280;58577;52.410;13.242;2022-12-18T07:42:48;103003.50;;;-7.94;100.00
70925;BME280;58577;52.410;13.242;2022-12-18T07:45:33;103000.22;;;-7.85;100.00
70925;BME280;58577;52.410;13.242;2022-12-18T07:48:19;103013.44;;;-7.73;100.00
70925;BME280;58577;52.410;13.242;2022-12-18T07:51:06;103004.06;;;-7.62;100.00
70925;BME280;58577;52.410;13.242;2022-12-18T07:53:52;102992.91;;;-7.52;100.00
70925;BME280;58577;52.410;13.242;2022-12-18T07:56:38;103002.22;;;-7.67;100.00
70925;BME280;58577;52.410;13.242;2022-12-18T07:59:23;102996.47;;;-7.46;100.00
70925;BME280;58577;52.410;13.242;2022-12-18T08:02:09;103005.03;;;-7.57;100.00
70925;BME280;58577;52.410;13.242;2022-12-18T08:04:55;103007.78;;;-7.46;100.00
70925;BME280;58577;52.410;13.242;2022-12-18T08:07:41;103024.25;;;-7.48;100.00
70925;BME280;58577;52.410;13.242;2022-12-18T08:10:27;103021.78;;;-7.41;100.00
70925;BME280;58577;52.410;13.242;2022-12-18T08:13:13;103029.38;;;-7.55;100.00
70925;BME280;58577;52.410;13.242;2022-12-18T08:16:03;103032.91;;;-7.53;100.00
70925;BME280;58577;52.410;13.242;2022-12-18T08:18:51;103034.50;;;-7.61;100.00
70925;BME280;58577;52.410;13.242;2022-12-18T08:21:37;103028.41;;;-7.61;100.00
70925;BME280;58577;52.410;13.242;2022-12-18T08:24:26;103023.81;;;-7.21;100.00
70925;BME280;58577;52.410;13.242;2022-12-18T08:27:12;103028.00;;;-7.31;100.00
70925;BME280;58577;52.410;13.242;2022-12-18T08:29:58;103025.41;;;-7.31;100.00
70925;BME280;58577;52.410;13.242;2022-12-18T08:32:44;103026.31;;;-7.27;100.00
70925;BME280;58577;52.410;13.242;2022-12-18T08:35:30;103034.00;;;-7.37;100.00
70925;BME280;58577;52.410;13.242;2022-12-18T08:38:15;103044.50;;;-7.32;100.00
70925;BME280;58577;52.410;13.242;2022-12-18T08:41:06;103041.34;;;-7.11;100.00
70925;BME280;58577;52.410;13.242;2022-12-18T08:43:52;103046.38;;;-7.23;100.00
70925;BME280;58577;52.410;13.242;2022-12-18T08:46:57;103060.16;;;-7.34;100.00
70925;BME280;58577;52.410;13.242;2022-12-18T08:49:42;103059.44;;;-7.23;100.00
70925;BME280;58577;52.410;13.242;2022-12-18T08:52:31;103065.50;;;-7.23;100.00
70925;BME280;58577;52.410;13.242;2022-12-18T08:55:18;103063.69;;;-7.28;100.00
70925;BME280;58577;52.410;13.242;2022-12-18T08:58:04;103059.13;;;-7.43;100.00
70925;BME280;58577;52.410;13.242;2022-12-18T09:00:50;103063.56;;;-7.38;100.00
70925;BME280;58577;52.410;13.242;2022-12-18T09:03:39;103068.09;;;-7.24;100.00
70925;BME280;58577;52.410;13.242;2022-12-18T09:06:28;103063.44;;;-7.44;100.00
70925;BME280;58577;52.410;13.242;2022-12-18T09:09:14;103069.81;;;-7.28;100.00
70925;BME280;58577;52.410;13.242;2022-12-18T09:12:03;103078.81;;;-7.06;100.00
70925;BME280;58577;52.410;13.242;2022-12-18T09:14:49;103067.53;;;-7.05;100.00
70925;BME280;58577;52.410;13.242;2022-12-18T09:17:35;103069.94;;;-7.20;100.00
70925;BME280;58577;52.410;13.242;2022-12-18T09:20:21;103069.19;;;-7.10;100.00
70925;BME280;58577;52.410;13.242;2022-12-18T09:23:07;103079.50;;;-7.19;100.00
70925;BME280;58577;52.410;13.242;2022-12-18T09:25:59;103062.28;;;-7.08;100.00
70925;BME280;58577;52.410;13.242;2022-12-18T09:28:47;103071.88;;;-7.05;100.00
70925;BME280;58577;52.410;13.242;2022-12-18T09:31:33;103091.06;;;-7.02;100.00
70925;BME280;58577;52.410;13.242;2022-12-18T09:34:20;103072.09;;;-6.90;100.00
70925;BME280;58577;52.410;13.242;2022-12-18T09:37:12;103071.94;;;-6.99;100.00
70925;BME280;58577;52.410;13.242;2022-12-18T09:39:58;103067.81;;;-6.85;100.00
70925;BME280;58577;52.410;13.242;2022-12-18T09:42:48;103058.22;;;-6.86;100.00
70925;BME280;58577;52.410;13.242;2022-12-18T09:45:44;103057.50;;;-6.76;100.00
70925;BME280;58577;52.410;13.242;2022-12-18T09:48:35;103053.03;;;-6.84;100.00
70925;BME280;58577;52.410;13.242;2022-12-18T09:51:26;103052.34;;;-6.71;100.00
70925;BME280;58577;52.410;13.242;2022-12-18T09:54:22;103045.19;;;-6.84;100.00
70925;BME280;58577;52.410;13.242;2022-12-18T09:57:22;103039.97;;;-6.84;100.00
70925;BME280;58577;52.410;13.242;2022-12-18T10:00:17;103027.03;;;-6.75;100.00
70925;BME280;58577;52.410;13.242;2022-12-18T10:03:14;103015.03;;;-6.61;100.00
70925;BME280;58577;52.410;13.242;2022-12-18T10:09:15;103025.53;;;-6.58;100.00
70925;BME280;58577;52.410;13.242;2022-12-18T10:12:32;103013.06;;;-6.79;100.00
70925;BME280;58577;52.410;13.242;2022-12-18T10:15:36;103015.69;;;-6.79;100.00
70925;BME280;58577;52.410;13.242;2022-12-18T10:25:21;103025.41;;;-6.67;100.00
70925;BME280;58577;52.410;13.242;2022-12-18T10:28:13;103021.06;;;-6.65;100.00
70925;BME280;58577;52.410;13.242;2022-12-18T10:31:00;103014.97;;;-6.65;100.00
70925;BME280;58577;52.410;13.242;2022-12-18T10:33:46;103009.88;;;-6.56;100.00
70925;BME280;58577;52.410;13.242;2022-12-18T10:36:32;103012.50;;;-6.55;100.00
70925;BME280;58577;52.410;13.242;2022-12-18T10:39:22;103010.78;;;-6.51;100.00
70925;BME280;58577;52.410;13.242;2022-12-18T10:42:19;103009.16;;;-6.41;100.00
70925;BME280;58577;52.410;13.242;2022-12-18T10:45:16;102996.09;;;-6.43;100.00
70925;BME280;58577;52.410;13.242;2022-12-18T10:48:03;102990.13;;;-6.31;100.00
70925;BME280;58577;52.410;13.242;2022-12-18T10:50:50;102981.16;;;-6.55;100.00
70925;BME280;58577;52.410;13.242;2022-12-18T10:54:01;102979.41;;;-6.56;100.00
70925;BME280;58577;52.410;13.242;2022-12-18T10:56:48;102989.03;;;-6.50;100.00
70925;BME280;58577;52.410;13.242;2022-12-18T10:59:53;102973.44;;;-6.44;100.00
70925;BME280;58577;52.410;13.242;2022-12-18T11:02:39;102965.75;;;-6.28;100.00
70925;BME280;58577;52.410;13.242;2022-12-18T11:05:33;102962.38;;;-6.20;100.00
70925;BME280;58577;52.410;13.242;2022-12-18T11:08:22;102969.47;;;-6.05;100.00
70925;BME280;58577;52.410;13.242;2022-12-18T11:11:19;102983.28;;;-6.18;100.00
70925;BME280;58577;52.410;13.242;2022-12-18T11:14:14;102972.16;;;-5.99;100.00
70925;BME280;58577;52.410;13.242;2022-12-18T11:17:01;102975.53;;;-6.07;100.00
70925;BME280;58577;52.410;13.242;2022-12-18T11:20:38;102978.19;;;-6.03;100.00
70925;BME280;58577;52.410;13.242;2022-12-18T11:23:04;102967.66;;;-6.10;100.00
70925;BME280;58577;52.410;13.242;2022-12-18T11:25:56;102973.06;;;-5.86;100.00
70925;BME280;58577;52.410;13.242;2022-12-18T11:31:29;102970.53;;;-5.81;100.00
70925;BME280;58577;52.410;13.242;2022-12-18T11:34:25;102962.66;;;-5.83;100.00
70925;BME280;58577;52.410;13.242;2022-12-18T11:37:13;102949.56;;;-5.84;100.00
70925;BME280;58577;52.410;13.242;2022-12-18T11:40:06;102960.03;;;-5.80;100.00
70925;BME280;58577;52.410;13.242;2022-12-18T11:43:21;102960.13;;;-5.70;100.00
70925;BME280;58577;52.410;13.242;2022-12-18T11:46:31;102975.00;;;-5.63;100.00
70925;BME280;58577;52.410;13.242;2022-12-18T11:49:28;102975.00;;;-5.63;100.00
70925;BME280;58577;52.410;13.242;2022-12-18T11:52:25;102996.63;;;-5.84;100.00
70925;BME280;58577;52.410;13.242;2022-12-18T11:58:46;102996.78;;;-5.66;100.00
70925;BME280;58577;52.410;13.242;2022-12-18T12:04:50;102990.81;;;-5.49;100.00
70925;BME280;58577;52.410;13.242;2022-12-18T12:08:02;103003.03;;;-5.45;100.00
70925;BME280;58577;52.410;13.242;2022-12-18T12:17:27;103001.41;;;-5.28;100.00
70925;BME280;58577;52.410;13.242;2022-12-18T12:24:03;102999.66;;;-5.29;100.00
70925;BME280;58577;52.410;13.242;2022-12-18T12:30:06;103013.59;;;-5.33;100.00
70925;BME280;58577;52.410;13.242;2022-12-18T12:33:00;103003.97;;;-5.36;100.00
70925;BME280;58577;52.410;13.242;2022-12-18T12:36:04;103006.50;;;-5.45;100.00
70925;BME280;58577;52.410;13.242;2022-12-18T12:39:00;103009.19;;;-5.40;100.00
70925;BME280;58577;52.410;13.242;2022-12-18T12:41:47;103002.25;;;-5.34;100.00
70925;BME280;58577;52.410;13.242;2022-12-18T12:44:55;102992.75;;;-5.15;100.00
70925;BME280;58577;52.410;13.242;2022-12-18T12:47:44;102983.16;;;-5.17;100.00
70925;BME280;58577;52.410;13.242;2022-12-18T12:50:34;102979.66;;;-5.21;100.00
70925;BME280;58577;52.410;13.242;2022-12-18T12:53:29;102967.31;;;-5.37;100.00
70925;BME280;58577;52.410;13.242;2022-12-18T12:56:18;102968.22;;;-5.34;100.00
70925;BME280;58577;52.410;13.242;2022-12-18T13:06:19;102976.06;;;-5.34;100.00
70925;BME280;58577;52.410;13.242;2022-12-18T13:09:09;102969.06;;;-5.42;100.00
70925;BME280;58577;52.410;13.242;2022-12-18T13:12:02;102969.97;;;-5.29;100.00
70925;BME280;58577;52.410;13.242;2022-12-18T13:15:20;102969.09;;;-5.35;100.00
70925;BME280;58577;52.410;13.242;2022-12-18T13:18:23;102970.88;;;-5.29;100.00
70925;BME280;58577;52.410;13.242;2022-12-18T13:21:30;102967.34;;;-5.34;100.00
70925;BME280;58577;52.410;13.242;2022-12-18T13:24:30;102958.56;;;-5.48;100.00
70925;BME280;58577;52.410;13.242;2022-12-18T13:36:31;102952.28;;;-5.70;100.00
70925;BME280;58577;52.410;13.242;2022-12-18T13:44:53;102955.84;;;-5.59;100.00
70925;BME280;58577;52.410;13.242;2022-12-18T13:47:39;102949.69;;;-5.67;100.00
70925;BME280;58577;52.410;13.242;2022-12-18T13:50:29;102940.06;;;-5.70;100.00
70925;BME280;58577;52.410;13.242;2022-12-18T13:53:21;102947.06;;;-5.70;100.00
70925;BME280;58577;52.410;13.242;2022-12-18T13:56:08;102954.09;;;-5.63;100.00
70925;BME280;58577;52.410;13.242;2022-12-18T13:59:13;102941.78;;;-5.77;100.00
70925;BME280;58577;52.410;13.242;2022-12-18T14:02:21;102927.81;;;-5.80;100.00
70925;BME280;58577;52.410;13.242;2022-12-18T14:05:33;102934.03;;;-5.63;100.00
70925;BME280;58577;52.410;13.242;2022-12-18T14:08:20;102942.81;;;-5.51;100.00
70925;BME280;58577;52.410;13.242;2022-12-18T14:11:07;102924.44;;;-5.65;100.00
70925;BME280;58577;52.410;13.242;2022-12-18T14:13:53;102922.66;;;-5.69;100.00
70925;BME280;58577;52.410;13.242;2022-12-18T14:16:40;102929.59;;;-5.70;100.00
70925;BME280;58577;52.410;13.242;2022-12-18T14:19:33;102913.94;;;-5.71;100.00
70925;BME280;58577;52.410;13.242;2022-12-18T14:22:26;102907.78;;;-5.78;100.00
70925;BME280;58577;52.410;13.242;2022-12-18T14:25:28;102901.69;;;-5.77;100.00
70925;BME280;58577;52.410;13.242;2022-12-18T14:28:14;102891.19;;;-5.80;100.00
70925;BME280;58577;52.410;13.242;2022-12-18T14:31:01;102892.91;;;-5.87;100.00
70925;BME280;58577;52.410;13.242;2022-12-18T14:33:53;102890.31;;;-5.84;100.00
70925;BME280;58577;52.410;13.242;2022-12-18T14:36:53;102875.50;;;-5.82;100.00
70925;BME280;58577;52.410;13.242;2022-12-18T14:39:55;102878.19;;;-5.73;100.00
70925;BME280;58577;52.410;13.242;2022-12-18T14:42:42;102898.13;;;-5.87;100.00
70925;BME280;58577;52.410;13.242;2022-12-18T14:45:36;102886.81;;;-5.86;100.00
70925;BME280;58577;52.410;13.242;2022-12-18T14:51:24;102905.09;;;-5.86;100.00
70925;BME280;58577;52.410;13.242;2022-12-18T14:54:17;102904.31;;;-5.77;100.00
70925;BME280;58577;52.410;13.242;2022-12-18T14:59:52;102906.91;;;-5.79;100.00
70925;BME280;58577;52.410;13.242;2022-12-18T15:02:38;102910.38;;;-5.78;100.00
70925;BME280;58577;52.410;13.242;2022-12-18T15:05:31;102907.75;;;-5.83;100.00
70925;BME280;58577;52.410;13.242;2022-12-18T15:08:34;102908.53;;;-5.93;100.00
70925;BME280;58577;52.410;13.242;2022-12-18T15:11:44;102906.91;;;-5.79;100.00
70925;BME280;58577;52.410;13.242;2022-12-18T15:14:34;102901.59;;;-5.91;100.00
70925;BME280;58577;52.410;13.242;2022-12-18T15:17:23;102891.13;;;-5.93;100.00
70925;BME280;58577;52.410;13.242;2022-12-18T15:20:10;102878.00;;;-6.03;100.00
70925;BME280;58577;52.410;13.242;2022-12-18T15:22:59;102881.53;;;-5.97;100.00
70925;BME280;58577;52.410;13.242;2022-12-18T15:53:12;102901.53;;;-6.03;100.00
70925;BME280;58577;52.410;13.242;2022-12-18T15:55:58;102901.53;;;-6.03;100.00
70925;BME280;58577;52.410;13.242;2022-12-18T15:59:04;102883.22;;;-6.03;100.00
70925;BME280;58577;52.410;13.242;2022-12-18T16:01:51;102878.00;;;-6.06;100.00
70925;BME280;58577;52.410;13.242;2022-12-18T16:04:43;102863.13;;;-6.10;100.00
70925;BME280;58577;52.410;13.242;2022-12-18T16:07:29;102877.16;;;-5.98;100.00